sensor_id;sensor_type;location;lat;lon;timestamp;P1;durP1;ratioP1;P2;durP2;ratioP2
15573;SDS011;7888;46.748;8.102;2022-10-26T00:00:47;0.70;;;0.60;;
15573;SDS011;7888;46.748;8.102;2022-10-26T00:03:13;2.17;;;0.80;;
15573;SDS011;7888;46.748;8.102;2022-10-26T00:05:40;3.33;;;0.83;;
15573;SDS011;7888;46.748;8.102;2022-10-26T00:08:06;3.00;;;0.80;;
15573;SDS011;7888;46.748;8.102;2022-10-26T00:10:34;1.97;;;0.60;;
15573;SDS011;7888;46.748;8.102;2022-10-26T00:13:02;1.67;;;0.57;;
15573;SDS011;7888;46.748;8.102;2022-10-26T00:15:29;1.43;;;0.60;;
15573;SDS011;7888;46.748;8.102;2022-10-26T00:17:55;1.27;;;0.70;;
15573;SDS011;7888;46.748;8.102;2022-10-26T00:20:22;4.13;;;0.87;;
15573;SDS011;7888;46.748;8.102;2022-10-26T00:22:48;3.63;;;0.87;;
15573;SDS011;7888;46.748;8.102;2022-10-26T00:25:14;2.63;;;0.70;;
15573;SDS011;7888;46.748;8.102;2022-10-26T00:27:39;0.80;;;0.50;;
15573;SDS011;7888;46.748;8.102;2022-10-26T00:30:05;2.07;;;0.70;;
15573;SDS011;7888;46.748;8.102;2022-10-26T00:32:32;3.47;;;0.83;;
15573;SDS011;7888;46.748;8.102;2022-10-26T00:34:59;5.03;;;0.70;;
15573;SDS011;7888;46.748;8.102;2022-10-26T00:37:25;1.13;;;0.70;;
15573;SDS011;7888;46.748;8.102;2022-10-26T00:39:51;1.23;;;0.70;;
15573;SDS011;7888;46.748;8.102;2022-10-26T00:42:17;2.30;;;0.73;;
15573;SDS011;7888;46.748;8.102;2022-10-26T00:47:16;2.37;;;0.73;;
15573;SDS011;7888;46.748;8.102;2022-10-26T00:50:02;2.20;;;0.80;;
15573;SDS011;7888;46.748;8.102;2022-10-26T00:52:55;2.73;;;0.97;;
15573;SDS011;7888;46.748;8.102;2022-10-26T00:55:26;1.50;;;0.70;;
15573;SDS011;7888;46.748;8.102;2022-10-26T00:58:01;2.10;;;0.53;;
15573;SDS011;7888;46.748;8.102;2022-10-26T01:00:29;2.00;;;0.40;;
15573;SDS011;7888;46.748;8.102;2022-10-26T01:02:56;2.17;;;0.70;;
15573;SDS011;7888;46.748;8.102;2022-10-26T01:05:26;0.83;;;0.53;;
15573;SDS011;7888;46.748;8.102;2022-10-26T01:07:54;4.20;;;0.70;;
15573;SDS011;7888;46.748;8.102;2022-10-26T01:10:20;1.57;;;0.53;;
15573;SDS011;7888;46.748;8.102;2022-10-26T01:12:49;2.97;;;0.50;;
15573;SDS011;7888;46.748;8.102;2022-10-26T01:15:15;0.83;;;0.50;;
15573;SDS011;7888;46.748;8.102;2022-10-26T01:17:54;1.53;;;0.50;;
15573;SDS011;7888;46.748;8.102;2022-10-26T01:23:18;1.30;;;0.50;;
15573;SDS011;7888;46.748;8.102;2022-10-26T01:26:07;3.90;;;0.50;;
15573;SDS011;7888;46.748;8.102;2022-10-26T01:32:14;0.80;;;0.50;;
15573;SDS011;7888;46.748;8.102;2022-10-26T01:35:04;1.77;;;0.80;;
15573;SDS011;7888;46.748;8.102;2022-10-26T01:38:10;2.30;;;0.70;;
15573;SDS011;7888;46.748;8.102;2022-10-26T01:41:06;0.70;;;0.47;;
15573;SDS011;7888;46.748;8.102;2022-10-26T01:43:54;1.80;;;0.50;;
15573;SDS011;7888;46.748;8.102;2022-10-26T01:46:27;1.00;;;0.50;;
15573;SDS011;7888;46.748;8.102;2022-10-26T01:48:58;0.77;;;0.67;;
15573;SDS011;7888;46.748;8.102;2022-10-26T01:51:32;1.00;;;0.57;;
15573;SDS011;7888;46.748;8.102;2022-10-26T01:53:59;2.70;;;0.77;;
15573;SDS011;7888;46.748;8.102;2022-10-26T01:56:26;2.23;;;0.90;;
15573;SDS011;7888;46.748;8.102;2022-10-26T01:59:02;0.80;;;0.60;;
15573;SDS011;7888;46.748;8.102;2022-10-26T02:10:24;1.50;;;0.70;;
15573;SDS011;7888;46.748;8.102;2022-10-26T02:13:36;1.50;;;1.07;;
15573;SDS011;7888;46.748;8.102;2022-10-26T02:21:28;2.90;;;1.40;;
15573;SDS011;7888;46.748;8.102;2022-10-26T02:24:06;1.87;;;1.33;;
15573;SDS011;7888;46.748;8.102;2022-10-26T02:26:35;2.47;;;1.13;;
15573;SDS011;7888;46.748;8.102;2022-10-26T02:29:06;1.47;;;1.10;;
15573;SDS011;7888;46.748;8.102;2022-10-26T02:31:39;2.40;;;1.00;;
15573;SDS011;7888;46.748;8.102;2022-10-26T02:34:07;2.07;;;1.20;;
15573;SDS011;7888;46.748;8.102;2022-10-26T02:36:38;2.67;;;1.17;;
15573;SDS011;7888;46.748;8.102;2022-10-26T02:39:09;1.53;;;1.00;;
15573;SDS011;7888;46.748;8.102;2022-10-26T02:41:38;1.00;;;0.90;;
15573;SDS011;7888;46.748;8.102;2022-10-26T02:46:50;5.07;;;1.30;;
15573;SDS011;7888;46.748;8.102;2022-10-26T02:49:19;1.40;;;1.30;;
15573;SDS011;7888;46.748;8.102;2022-10-26T02:51:52;2.97;;;1.40;;
15573;SDS011;7888;46.748;8.102;2022-10-26T02:54:22;2.77;;;1.20;;
15573;SDS011;7888;46.748;8.102;2022-10-26T02:56:58;2.40;;;1.40;;
15573;SDS011;7888;46.748;8.102;2022-10-26T02:59:49;1.70;;;1.20;;
15573;SDS011;7888;46.748;8.102;2022-10-26T03:02:17;1.80;;;1.00;;
15573;SDS011;7888;46.748;8.102;2022-10-26T03:04:46;1.83;;;1.17;;
15573;SDS011;7888;46.748;8.102;2022-10-26T03:07:23;1.57;;;1.03;;
15573;SDS011;7888;46.748;8.102;2022-10-26T03:09:50;1.33;;;1.00;;
15573;SDS011;7888;46.748;8.102;2022-10-26T03:12:16;3.17;;;1.10;;
15573;SDS011;7888;46.748;8.102;2022-10-26T03:14:42;8.37;;;1.40;;
15573;SDS011;7888;46.748;8.102;2022-10-26T03:17:08;1.70;;;1.10;;
15573;SDS011;7888;46.748;8.102;2022-10-26T03:19:34;1.20;;;0.90;;
15573;SDS011;7888;46.748;8.102;2022-10-26T03:21:59;7.00;;;1.17;;
15573;SDS011;7888;46.748;8.102;2022-10-26T03:24:25;3.00;;;1.40;;
15573;SDS011;7888;46.748;8.102;2022-10-26T03:26:51;3.23;;;1.20;;
15573;SDS011;7888;46.748;8.102;2022-10-26T03:29:17;1.70;;;1.13;;
15573;SDS011;7888;46.748;8.102;2022-10-26T03:31:43;2.90;;;1.10;;
15573;SDS011;7888;46.748;8.102;2022-10-26T03:34:08;1.43;;;0.83;;
15573;SDS011;7888;46.748;8.102;2022-10-26T03:36:34;1.30;;;0.90;;
15573;SDS011;7888;46.748;8.102;2022-10-26T03:39:00;2.50;;;1.00;;
15573;SDS011;7888;46.748;8.102;2022-10-26T03:41:26;2.87;;;0.80;;
15573;SDS011;7888;46.748;8.102;2022-10-26T03:43:52;1.40;;;0.80;;
15573;SDS011;7888;46.748;8.102;2022-10-26T03:46:18;1.73;;;0.80;;
15573;SDS011;7888;46.748;8.102;2022-10-26T03:48:43;1.73;;;1.00;;
15573;SDS011;7888;46.748;8.102;2022-10-26T03:51:09;3.07;;;1.10;;
15573;SDS011;7888;46.748;8.102;2022-10-26T03:53:35;2.57;;;0.87;;
15573;SDS011;7888;46.748;8.102;2022-10-26T03:56:01;1.90;;;0.80;;
15573;SDS011;7888;46.748;8.102;2022-10-26T03:58:27;6.07;;;0.80;;
15573;SDS011;7888;46.748;8.102;2022-10-26T04:00:53;1.07;;;0.90;;
15573;SDS011;7888;46.748;8.102;2022-10-26T04:03:19;1.97;;;0.97;;
15573;SDS011;7888;46.748;8.102;2022-10-26T04:05:44;3.37;;;1.00;;
15573;SDS011;7888;46.748;8.102;2022-10-26T04:08:10;2.90;;;1.10;;
15573;SDS011;7888;46.748;8.102;2022-10-26T04:10:36;1.50;;;1.07;;
15573;SDS011;7888;46.748;8.102;2022-10-26T04:13:02;1.83;;;1.07;;
15573;SDS011;7888;46.748;8.102;2022-10-26T04:15:28;3.53;;;0.90;;
15573;SDS011;7888;46.748;8.102;2022-10-26T04:17:54;4.57;;;1.07;;
15573;SDS011;7888;46.748;8.102;2022-10-26T04:20:26;3.77;;;1.10;;
15573;SDS011;7888;46.748;8.102;2022-10-26T04:23:00;2.00;;;0.97;;
15573;SDS011;7888;46.748;8.102;2022-10-26T04:25:29;2.23;;;0.87;;
15573;SDS011;7888;46.748;8.102;2022-10-26T04:27:56;1.80;;;0.83;;
15573;SDS011;7888;46.748;8.102;2022-10-26T04:30:23;2.53;;;0.80;;
15573;SDS011;7888;46.748;8.102;2022-10-26T04:32:49;1.97;;;1.00;;
15573;SDS011;7888;46.748;8.102;2022-10-26T04:35:15;1.77;;;0.67;;
15573;SDS011;7888;46.748;8.102;2022-10-26T04:37:42;1.93;;;0.70;;
15573;SDS011;7888;46.748;8.102;2022-10-26T04:40:08;2.57;;;0.80;;
15573;SDS011;7888;46.748;8.102;2022-10-26T04:42:45;4.03;;;1.10;;
15573;SDS011;7888;46.748;8.102;2022-10-26T04:45:12;2.33;;;0.80;;
15573;SDS011;7888;46.748;8.102;2022-10-26T04:47:40;0.97;;;0.70;;
15573;SDS011;7888;46.748;8.102;2022-10-26T04:50:06;1.47;;;0.80;;
15573;SDS011;7888;46.748;8.102;2022-10-26T04:52:34;2.30;;;1.00;;
15573;SDS011;7888;46.748;8.102;2022-10-26T04:55:01;1.77;;;0.90;;
15573;SDS011;7888;46.748;8.102;2022-10-26T04:57:32;2.17;;;0.90;;
15573;SDS011;7888;46.748;8.102;2022-10-26T04:59:59;2.87;;;0.70;;
15573;SDS011;7888;46.748;8.102;2022-10-26T05:02:26;2.30;;;0.80;;
15573;SDS011;7888;46.748;8.102;2022-10-26T05:04:53;1.73;;;0.77;;
15573;SDS011;7888;46.748;8.102;2022-10-26T05:07:19;1.70;;;0.67;;
15573;SDS011;7888;46.748;8.102;2022-10-26T05:09:45;1.87;;;0.90;;
15573;SDS011;7888;46.748;8.102;2022-10-26T05:12:11;1.67;;;0.80;;
15573;SDS011;7888;46.748;8.102;2022-10-26T05:14:37;2.47;;;0.83;;
15573;SDS011;7888;46.748;8.102;2022-10-26T05:17:03;2.23;;;0.87;;
15573;SDS011;7888;46.748;8.102;2022-10-26T05:19:29;1.90;;;0.90;;
15573;SDS011;7888;46.748;8.102;2022-10-26T05:21:55;6.23;;;1.50;;
15573;SDS011;7888;46.748;8.102;2022-10-26T05:24:20;4.07;;;2.20;;
15573;SDS011;7888;46.748;8.102;2022-10-26T05:26:46;1.93;;;1.50;;
15573;SDS011;7888;46.748;8.102;2022-10-26T05:29:12;4.97;;;1.27;;
15573;SDS011;7888;46.748;8.102;2022-10-26T05:31:38;6.53;;;3.83;;
15573;SDS011;7888;46.748;8.102;2022-10-26T05:34:04;9.90;;;6.20;;
15573;SDS011;7888;46.748;8.102;2022-10-26T05:36:30;11.53;;;7.37;;
15573;SDS011;7888;46.748;8.102;2022-10-26T05:38:56;15.07;;;11.13;;
15573;SDS011;7888;46.748;8.102;2022-10-26T05:41:23;12.87;;;9.17;;
15573;SDS011;7888;46.748;8.102;2022-10-26T05:43:49;7.30;;;5.97;;
15573;SDS011;7888;46.748;8.102;2022-10-26T05:46:15;8.80;;;6.13;;
15573;SDS011;7888;46.748;8.102;2022-10-26T05:48:41;5.60;;;4.37;;
15573;SDS011;7888;46.748;8.102;2022-10-26T05:51:07;6.00;;;4.07;;
15573;SDS011;7888;46.748;8.102;2022-10-26T05:53:33;3.53;;;2.40;;
15573;SDS011;7888;46.748;8.102;2022-10-26T05:55:59;4.37;;;3.07;;
15573;SDS011;7888;46.748;8.102;2022-10-26T05:58:25;4.53;;;2.53;;
15573;SDS011;7888;46.748;8.102;2022-10-26T06:04:04;3.33;;;2.17;;
15573;SDS011;7888;46.748;8.102;2022-10-26T06:06:46;2.60;;;1.47;;
15573;SDS011;7888;46.748;8.102;2022-10-26T06:09:18;3.73;;;1.30;;
15573;SDS011;7888;46.748;8.102;2022-10-26T06:11:44;4.23;;;1.23;;
15573;SDS011;7888;46.748;8.102;2022-10-26T06:14:11;3.60;;;1.20;;
15573;SDS011;7888;46.748;8.102;2022-10-26T06:31:15;1.93;;;1.03;;
15573;SDS011;7888;46.748;8.102;2022-10-26T06:33:41;3.27;;;1.07;;
15573;SDS011;7888;46.748;8.102;2022-10-26T06:39:02;3.00;;;1.10;;
15573;SDS011;7888;46.748;8.102;2022-10-26T06:41:33;1.33;;;0.93;;
15573;SDS011;7888;46.748;8.102;2022-10-26T06:44:02;2.17;;;1.10;;
15573;SDS011;7888;46.748;8.102;2022-10-26T06:46:33;1.07;;;0.90;;
15573;SDS011;7888;46.748;8.102;2022-10-26T06:51:56;2.20;;;1.00;;
15573;SDS011;7888;46.748;8.102;2022-10-26T06:54:36;1.73;;;1.00;;
15573;SDS011;7888;46.748;8.102;2022-10-26T06:57:10;2.23;;;0.97;;
15573;SDS011;7888;46.748;8.102;2022-10-26T06:59:41;2.40;;;0.90;;
15573;SDS011;7888;46.748;8.102;2022-10-26T07:02:11;1.03;;;0.97;;
15573;SDS011;7888;46.748;8.102;2022-10-26T07:04:39;3.23;;;1.10;;
15573;SDS011;7888;46.748;8.102;2022-10-26T07:07:09;2.63;;;1.10;;
15573;SDS011;7888;46.748;8.102;2022-10-26T07:09:39;2.63;;;1.07;;
15573;SDS011;7888;46.748;8.102;2022-10-26T07:12:05;3.20;;;1.00;;
15573;SDS011;7888;46.748;8.102;2022-10-26T07:14:31;2.27;;;1.00;;
15573;SDS011;7888;46.748;8.102;2022-10-26T07:16:57;2.60;;;1.20;;
15573;SDS011;7888;46.748;8.102;2022-10-26T07:19:23;2.30;;;1.50;;
15573;SDS011;7888;46.748;8.102;2022-10-26T07:21:49;1.73;;;1.27;;
15573;SDS011;7888;46.748;8.102;2022-10-26T07:24:14;3.13;;;1.40;;
15573;SDS011;7888;46.748;8.102;2022-10-26T07:26:40;2.77;;;1.63;;
15573;SDS011;7888;46.748;8.102;2022-10-26T07:29:06;4.37;;;2.77;;
15573;SDS011;7888;46.748;8.102;2022-10-26T07:31:32;3.87;;;2.17;;
15573;SDS011;7888;46.748;8.102;2022-10-26T07:33:58;2.03;;;1.50;;
15573;SDS011;7888;46.748;8.102;2022-10-26T07:36:24;2.77;;;1.40;;
15573;SDS011;7888;46.748;8.102;2022-10-26T07:38:50;1.73;;;1.30;;
15573;SDS011;7888;46.748;8.102;2022-10-26T07:41:17;3.17;;;1.50;;
15573;SDS011;7888;46.748;8.102;2022-10-26T07:43:44;2.93;;;1.30;;
15573;SDS011;7888;46.748;8.102;2022-10-26T07:46:11;2.10;;;1.50;;
15573;SDS011;7888;46.748;8.102;2022-10-26T07:48:37;2.47;;;1.23;;
15573;SDS011;7888;46.748;8.102;2022-10-26T07:51:03;2.60;;;1.03;;
15573;SDS011;7888;46.748;8.102;2022-10-26T07:53:29;2.30;;;1.10;;
15573;SDS011;7888;46.748;8.102;2022-10-26T07:55:55;3.03;;;1.10;;
15573;SDS011;7888;46.748;8.102;2022-10-26T07:58:22;1.47;;;0.97;;
15573;SDS011;7888;46.748;8.102;2022-10-26T08:00:53;3.90;;;1.10;;
15573;SDS011;7888;46.748;8.102;2022-10-26T08:03:19;3.87;;;1.37;;
15573;SDS011;7888;46.748;8.102;2022-10-26T08:05:46;3.13;;;1.20;;
15573;SDS011;7888;46.748;8.102;2022-10-26T08:08:18;2.90;;;0.90;;
15573;SDS011;7888;46.748;8.102;2022-10-26T08:10:44;4.67;;;1.40;;
15573;SDS011;7888;46.748;8.102;2022-10-26T08:13:11;2.07;;;1.00;;
15573;SDS011;7888;46.748;8.102;2022-10-26T08:15:38;4.03;;;1.50;;
15573;SDS011;7888;46.748;8.102;2022-10-26T08:18:05;3.40;;;1.13;;
15573;SDS011;7888;46.748;8.102;2022-10-26T08:20:31;2.63;;;1.03;;
15573;SDS011;7888;46.748;8.102;2022-10-26T08:22:58;5.53;;;1.33;;
15573;SDS011;7888;46.748;8.102;2022-10-26T08:25:25;2.50;;;1.17;;
15573;SDS011;7888;46.748;8.102;2022-10-26T08:27:52;2.30;;;1.30;;
15573;SDS011;7888;46.748;8.102;2022-10-26T08:30:18;1.70;;;1.40;;
15573;SDS011;7888;46.748;8.102;2022-10-26T08:32:44;2.57;;;1.20;;
15573;SDS011;7888;46.748;8.102;2022-10-26T08:35:10;2.73;;;1.10;;
15573;SDS011;7888;46.748;8.102;2022-10-26T08:37:36;4.33;;;1.20;;
15573;SDS011;7888;46.748;8.102;2022-10-26T08:40:02;3.27;;;1.53;;
15573;SDS011;7888;46.748;8.102;2022-10-26T08:42:31;4.03;;;1.30;;
15573;SDS011;7888;46.748;8.102;2022-10-26T08:45:17;5.57;;;1.37;;
15573;SDS011;7888;46.748;8.102;2022-10-26T08:47:57;1.47;;;1.00;;
15573;SDS011;7888;46.748;8.102;2022-10-26T08:50:30;3.27;;;1.33;;
15573;SDS011;7888;46.748;8.102;2022-10-26T08:53:03;4.13;;;1.43;;
15573;SDS011;7888;46.748;8.102;2022-10-26T08:55:46;5.57;;;1.37;;
15573;SDS011;7888;46.748;8.102;2022-10-26T08:58:39;3.50;;;1.50;;
15573;SDS011;7888;46.748;8.102;2022-10-26T09:01:17;4.47;;;1.20;;
15573;SDS011;7888;46.748;8.102;2022-10-26T09:03:43;3.17;;;1.40;;
15573;SDS011;7888;46.748;8.102;2022-10-26T09:09:07;5.77;;;1.87;;
15573;SDS011;7888;46.748;8.102;2022-10-26T09:11:50;2.73;;;1.10;;
15573;SDS011;7888;46.748;8.102;2022-10-26T09:14:31;4.40;;;1.37;;
15573;SDS011;7888;46.748;8.102;2022-10-26T09:17:12;5.43;;;1.00;;
15573;SDS011;7888;46.748;8.102;2022-10-26T09:26:28;2.50;;;1.13;;
15573;SDS011;7888;46.748;8.102;2022-10-26T09:29:21;3.30;;;1.10;;
15573;SDS011;7888;46.748;8.102;2022-10-26T09:31:56;4.13;;;1.23;;
15573;SDS011;7888;46.748;8.102;2022-10-26T09:34:28;2.00;;;1.03;;
15573;SDS011;7888;46.748;8.102;2022-10-26T09:37:14;3.40;;;1.13;;
15573;SDS011;7888;46.748;8.102;2022-10-26T09:48:32;2.83;;;1.43;;
15573;SDS011;7888;46.748;8.102;2022-10-26T09:51:06;4.83;;;1.00;;
15573;SDS011;7888;46.748;8.102;2022-10-26T09:53:32;2.33;;;1.03;;
15573;SDS011;7888;46.748;8.102;2022-10-26T09:56:11;2.33;;;1.20;;
15573;SDS011;7888;46.748;8.102;2022-10-26T10:06:41;2.37;;;1.47;;
15573;SDS011;7888;46.748;8.102;2022-10-26T10:09:10;3.10;;;1.30;;
15573;SDS011;7888;46.748;8.102;2022-10-26T10:12:16;1.73;;;1.50;;
15573;SDS011;7888;46.748;8.102;2022-10-26T10:14:54;2.83;;;1.20;;
15573;SDS011;7888;46.748;8.102;2022-10-26T10:17:22;2.93;;;1.43;;
15573;SDS011;7888;46.748;8.102;2022-10-26T10:19:49;3.90;;;1.30;;
15573;SDS011;7888;46.748;8.102;2022-10-26T10:22:17;1.67;;;1.50;;
15573;SDS011;7888;46.748;8.102;2022-10-26T10:24:52;3.10;;;1.30;;
15573;SDS011;7888;46.748;8.102;2022-10-26T10:27:23;1.20;;;1.10;;
15573;SDS011;7888;46.748;8.102;2022-10-26T10:29:52;2.63;;;1.00;;
15573;SDS011;7888;46.748;8.102;2022-10-26T10:32:24;2.00;;;1.30;;
15573;SDS011;7888;46.748;8.102;2022-10-26T10:34:55;2.17;;;1.40;;
15573;SDS011;7888;46.748;8.102;2022-10-26T10:37:30;2.57;;;1.43;;
15573;SDS011;7888;46.748;8.102;2022-10-26T10:42:49;6.10;;;1.50;;
15573;SDS011;7888;46.748;8.102;2022-10-26T10:45:25;3.30;;;1.20;;
15573;SDS011;7888;46.748;8.102;2022-10-26T10:48:02;2.97;;;1.33;;
15573;SDS011;7888;46.748;8.102;2022-10-26T10:50:29;1.63;;;1.07;;
15573;SDS011;7888;46.748;8.102;2022-10-26T10:53:11;3.53;;;1.10;;
15573;SDS011;7888;46.748;8.102;2022-10-26T11:07:17;3.20;;;1.20;;
15573;SDS011;7888;46.748;8.102;2022-10-26T11:09:47;2.97;;;1.20;;
15573;SDS011;7888;46.748;8.102;2022-10-26T11:12:17;3.03;;;1.20;;
15573;SDS011;7888;46.748;8.102;2022-10-26T11:14:57;3.27;;;1.40;;
15573;SDS011;7888;46.748;8.102;2022-10-26T11:20:38;2.03;;;1.30;;
15573;SDS011;7888;46.748;8.102;2022-10-26T11:23:17;5.43;;;2.00;;
15573;SDS011;7888;46.748;8.102;2022-10-26T11:26:44;3.07;;;1.40;;
15573;SDS011;7888;46.748;8.102;2022-10-26T11:28:57;2.70;;;1.17;;
15573;SDS011;7888;46.748;8.102;2022-10-26T11:31:36;1.47;;;1.00;;
15573;SDS011;7888;46.748;8.102;2022-10-26T11:37:24;4.40;;;1.00;;
15573;SDS011;7888;46.748;8.102;2022-10-26T11:40:50;2.13;;;0.80;;
15573;SDS011;7888;46.748;8.102;2022-10-26T11:43:29;5.53;;;1.10;;
15573;SDS011;7888;46.748;8.102;2022-10-26T11:46:12;3.63;;;1.00;;
15573;SDS011;7888;46.748;8.102;2022-10-26T11:49:04;1.63;;;0.77;;
15573;SDS011;7888;46.748;8.102;2022-10-26T11:51:53;2.10;;;1.10;;
15573;SDS011;7888;46.748;8.102;2022-10-26T11:54:43;2.45;;;1.20;;
15573;SDS011;7888;46.748;8.102;2022-10-26T11:57:28;5.93;;;1.15;;
15573;SDS011;7888;46.748;8.102;2022-10-26T12:02:41;5.00;;;1.05;;
15573;SDS011;7888;46.748;8.102;2022-10-26T12:05:18;2.72;;;0.98;;
15573;SDS011;7888;46.748;8.102;2022-10-26T12:08:07;3.88;;;1.30;;
15573;SDS011;7888;46.748;8.102;2022-10-26T12:10:41;1.63;;;1.13;;
15573;SDS011;7888;46.748;8.102;2022-10-26T12:13:19;3.05;;;0.95;;
15573;SDS011;7888;46.748;8.102;2022-10-26T12:18:58;5.53;;;0.93;;
15573;SDS011;7888;46.748;8.102;2022-10-26T12:21:31;2.50;;;0.80;;
15573;SDS011;7888;46.748;8.102;2022-10-26T12:23:59;4.22;;;1.20;;
15573;SDS011;7888;46.748;8.102;2022-10-26T12:29:33;3.25;;;0.85;;
15573;SDS011;7888;46.748;8.102;2022-10-26T12:32:55;1.42;;;0.88;;
15573;SDS011;7888;46.748;8.102;2022-10-26T12:48:43;2.88;;;0.82;;
15573;SDS011;7888;46.748;8.102;2022-10-26T13:08:20;4.63;;;1.48;;
15573;SDS011;7888;46.748;8.102;2022-10-26T13:10:59;1.92;;;1.05;;
15573;SDS011;7888;46.748;8.102;2022-10-26T13:13:54;2.53;;;1.10;;
15573;SDS011;7888;46.748;8.102;2022-10-26T13:16:31;2.40;;;0.70;;
15573;SDS011;7888;46.748;8.102;2022-10-26T13:18:58;1.90;;;0.88;;
15573;SDS011;7888;46.748;8.102;2022-10-26T13:21:24;4.10;;;1.15;;
15573;SDS011;7888;46.748;8.102;2022-10-26T13:26:22;2.55;;;1.20;;
15573;SDS011;7888;46.748;8.102;2022-10-26T13:28:51;5.47;;;1.15;;
15573;SDS011;7888;46.748;8.102;2022-10-26T13:34:11;3.00;;;1.13;;
15573;SDS011;7888;46.748;8.102;2022-10-26T13:42:31;1.90;;;0.80;;
15573;SDS011;7888;46.748;8.102;2022-10-26T13:45:10;2.97;;;1.10;;
15573;SDS011;7888;46.748;8.102;2022-10-26T13:47:43;4.60;;;1.40;;
15573;SDS011;7888;46.748;8.102;2022-10-26T13:50:53;4.68;;;0.77;;
15573;SDS011;7888;46.748;8.102;2022-10-26T13:59:02;6.22;;;1.00;;
15573;SDS011;7888;46.748;8.102;2022-10-26T14:01:33;8.32;;;1.63;;
15573;SDS011;7888;46.748;8.102;2022-10-26T14:03:59;10.85;;;1.15;;
15573;SDS011;7888;46.748;8.102;2022-10-26T14:06:50;2.20;;;1.13;;
15573;SDS011;7888;46.748;8.102;2022-10-26T14:09:19;5.45;;;1.52;;
15573;SDS011;7888;46.748;8.102;2022-10-26T14:11:50;3.17;;;1.15;;
15573;SDS011;7888;46.748;8.102;2022-10-26T14:14:23;2.28;;;0.90;;
15573;SDS011;7888;46.748;8.102;2022-10-26T14:16:53;4.28;;;1.00;;
15573;SDS011;7888;46.748;8.102;2022-10-26T14:21:57;3.13;;;0.93;;
15573;SDS011;7888;46.748;8.102;2022-10-26T14:24:28;5.40;;;1.10;;
15573;SDS011;7888;46.748;8.102;2022-10-26T14:26:56;9.43;;;1.40;;
15573;SDS011;7888;46.748;8.102;2022-10-26T14:29:23;2.95;;;0.80;;
15573;SDS011;7888;46.748;8.102;2022-10-26T14:31:52;1.50;;;0.95;;
15573;SDS011;7888;46.748;8.102;2022-10-26T14:34:21;4.88;;;1.13;;
15573;SDS011;7888;46.748;8.102;2022-10-26T14:36:49;4.95;;;1.20;;
15573;SDS011;7888;46.748;8.102;2022-10-26T14:39:35;1.35;;;1.00;;
15573;SDS011;7888;46.748;8.102;2022-10-26T14:42:11;1.92;;;0.90;;
15573;SDS011;7888;46.748;8.102;2022-10-26T14:44:54;2.45;;;0.90;;
15573;SDS011;7888;46.748;8.102;2022-10-26T14:47:23;1.17;;;0.77;;
15573;SDS011;7888;46.748;8.102;2022-10-26T14:49:53;2.67;;;0.95;;
15573;SDS011;7888;46.748;8.102;2022-10-26T14:52:24;2.85;;;0.77;;
15573;SDS011;7888;46.748;8.102;2022-10-26T14:55:10;1.75;;;0.75;;
15573;SDS011;7888;46.748;8.102;2022-10-26T14:57:40;2.20;;;0.80;;
15573;SDS011;7888;46.748;8.102;2022-10-26T15:00:14;5.82;;;1.30;;
15573;SDS011;7888;46.748;8.102;2022-10-26T15:02:58;3.35;;;1.13;;
15573;SDS011;7888;46.748;8.102;2022-10-26T15:07:59;2.85;;;0.98;;
15573;SDS011;7888;46.748;8.102;2022-10-26T15:15:49;1.98;;;0.93;;
15573;SDS011;7888;46.748;8.102;2022-10-26T15:18:27;3.28;;;1.20;;
15573;SDS011;7888;46.748;8.102;2022-10-26T15:20:58;1.60;;;0.90;;
15573;SDS011;7888;46.748;8.102;2022-10-26T15:23:25;4.50;;;1.25;;
15573;SDS011;7888;46.748;8.102;2022-10-26T15:26:00;2.28;;;1.08;;
15573;SDS011;7888;46.748;8.102;2022-10-26T15:28:31;5.03;;;1.15;;
15573;SDS011;7888;46.748;8.102;2022-10-26T15:33:36;2.28;;;0.70;;
15573;SDS011;7888;46.748;8.102;2022-10-26T15:36:29;3.92;;;1.05;;
15573;SDS011;7888;46.748;8.102;2022-10-26T15:38:59;2.92;;;1.65;;
15573;SDS011;7888;46.748;8.102;2022-10-26T15:41:26;4.38;;;1.38;;
15573;SDS011;7888;46.748;8.102;2022-10-26T15:44:01;4.72;;;1.33;;
15573;SDS011;7888;46.748;8.102;2022-10-26T15:46:32;4.85;;;1.35;;
15573;SDS011;7888;46.748;8.102;2022-10-26T15:49:01;1.67;;;0.98;;
15573;SDS011;7888;46.748;8.102;2022-10-26T15:51:30;1.75;;;1.23;;
15573;SDS011;7888;46.748;8.102;2022-10-26T15:53:57;6.13;;;1.13;;
15573;SDS011;7888;46.748;8.102;2022-10-26T15:56:26;5.22;;;1.08;;
15573;SDS011;7888;46.748;8.102;2022-10-26T15:58:53;4.53;;;1.33;;
15573;SDS011;7888;46.748;8.102;2022-10-26T16:03:47;8.35;;;1.80;;
15573;SDS011;7888;46.748;8.102;2022-10-26T16:06:18;5.93;;;1.67;;
15573;SDS011;7888;46.748;8.102;2022-10-26T16:09:00;1.70;;;0.98;;
15573;SDS011;7888;46.748;8.102;2022-10-26T16:11:30;2.72;;;1.23;;
15573;SDS011;7888;46.748;8.102;2022-10-26T16:13:56;5.30;;;1.33;;
15573;SDS011;7888;46.748;8.102;2022-10-26T16:16:23;3.13;;;1.10;;
15573;SDS011;7888;46.748;8.102;2022-10-26T16:18:52;4.10;;;1.27;;
15573;SDS011;7888;46.748;8.102;2022-10-26T16:21:20;4.57;;;1.63;;
15573;SDS011;7888;46.748;8.102;2022-10-26T16:23:49;3.93;;;1.20;;
15573;SDS011;7888;46.748;8.102;2022-10-26T16:26:18;2.37;;;1.00;;
15573;SDS011;7888;46.748;8.102;2022-10-26T16:28:45;4.70;;;1.20;;
15573;SDS011;7888;46.748;8.102;2022-10-26T16:31:13;3.53;;;1.20;;
15573;SDS011;7888;46.748;8.102;2022-10-26T16:33:42;3.47;;;0.70;;
15573;SDS011;7888;46.748;8.102;2022-10-26T16:36:09;3.90;;;1.60;;
15573;SDS011;7888;46.748;8.102;2022-10-26T16:38:37;7.97;;;1.37;;
15573;SDS011;7888;46.748;8.102;2022-10-26T16:41:08;2.90;;;1.17;;
15573;SDS011;7888;46.748;8.102;2022-10-26T16:43:37;4.97;;;1.37;;
15573;SDS011;7888;46.748;8.102;2022-10-26T16:46:07;3.07;;;1.13;;
15573;SDS011;7888;46.748;8.102;2022-10-26T16:48:42;2.90;;;0.90;;
15573;SDS011;7888;46.748;8.102;2022-10-26T16:51:11;2.60;;;1.23;;
15573;SDS011;7888;46.748;8.102;2022-10-26T16:53:55;1.40;;;0.97;;
15573;SDS011;7888;46.748;8.102;2022-10-26T16:56:23;3.27;;;1.37;;
15573;SDS011;7888;46.748;8.102;2022-10-26T16:58:52;6.40;;;2.07;;
15573;SDS011;7888;46.748;8.102;2022-10-26T17:01:19;3.80;;;2.70;;
15573;SDS011;7888;46.748;8.102;2022-10-26T17:03:46;3.90;;;2.10;;
15573;SDS011;7888;46.748;8.102;2022-10-26T17:06:14;4.00;;;2.20;;
15573;SDS011;7888;46.748;8.102;2022-10-26T17:08:40;5.50;;;1.40;;
15573;SDS011;7888;46.748;8.102;2022-10-26T17:13:34;4.77;;;1.60;;
15573;SDS011;7888;46.748;8.102;2022-10-26T17:16:14;5.03;;;1.77;;
15573;SDS011;7888;46.748;8.102;2022-10-26T17:18:43;2.77;;;1.30;;
15573;SDS011;7888;46.748;8.102;2022-10-26T17:21:11;4.43;;;1.30;;
15573;SDS011;7888;46.748;8.102;2022-10-26T17:23:40;3.47;;;1.47;;
15573;SDS011;7888;46.748;8.102;2022-10-26T17:26:06;5.60;;;1.60;;
15573;SDS011;7888;46.748;8.102;2022-10-26T17:28:35;2.93;;;2.03;;
15573;SDS011;7888;46.748;8.102;2022-10-26T17:31:05;3.87;;;2.27;;
15573;SDS011;7888;46.748;8.102;2022-10-26T17:33:33;5.37;;;2.23;;
15573;SDS011;7888;46.748;8.102;2022-10-26T17:36:02;5.80;;;2.03;;
15573;SDS011;7888;46.748;8.102;2022-10-26T17:38:30;9.37;;;2.23;;
15573;SDS011;7888;46.748;8.102;2022-10-26T17:41:03;4.23;;;2.00;;
15573;SDS011;7888;46.748;8.102;2022-10-26T17:43:33;6.50;;;3.07;;
15573;SDS011;7888;46.748;8.102;2022-10-26T17:46:05;6.20;;;3.20;;
15573;SDS011;7888;46.748;8.102;2022-10-26T17:48:35;5.47;;;2.60;;
15573;SDS011;7888;46.748;8.102;2022-10-26T17:51:02;7.47;;;2.63;;
15573;SDS011;7888;46.748;8.102;2022-10-26T17:53:31;4.70;;;2.37;;
15573;SDS011;7888;46.748;8.102;2022-10-26T17:56:07;3.50;;;1.70;;
15573;SDS011;7888;46.748;8.102;2022-10-26T17:58:37;4.90;;;1.90;;
15573;SDS011;7888;46.748;8.102;2022-10-26T18:01:04;3.77;;;2.00;;
15573;SDS011;7888;46.748;8.102;2022-10-26T18:03:35;3.70;;;2.03;;
15573;SDS011;7888;46.748;8.102;2022-10-26T18:06:02;5.03;;;1.70;;
15573;SDS011;7888;46.748;8.102;2022-10-26T18:08:31;4.40;;;1.90;;
15573;SDS011;7888;46.748;8.102;2022-10-26T18:10:58;2.67;;;1.73;;
15573;SDS011;7888;46.748;8.102;2022-10-26T18:13:28;4.30;;;2.03;;
15573;SDS011;7888;46.748;8.102;2022-10-26T18:16:04;3.77;;;2.13;;